This is the latest recevied weather packets stored in our database for station/object DB0OHA-10. If no packets are shown the sender has not sent any weather packets the latest 10 day(s).
| Time | Temp. | Humidity | Pressure | Rain* | Wind** | Luminosity | Snow |
|---|---|---|---|---|---|---|---|
| 1777752948 | 16.11° C | 55% | 1014.6 hPa | 0 mm | - | 0 W/m² | - |
| 1777752915 | 16.11° C | 55% | 1014.6 hPa | 0 mm | - | 0 W/m² | - |
| 1777752016 | 16.67° C | 54% | 1015.1 hPa | 0 mm | - | 0 W/m² | - |
| 1777751116 | 16.67° C | 54% | 1014.6 hPa | 0 mm | - | 0 W/m² | - |
| 1777750216 | 17.22° C | 54% | 1014.6 hPa | 0 mm | - | 0 W/m² | - |
| 1777749316 | 17.22° C | 54% | 1014.7 hPa | 0 mm | - | 0 W/m² | - |
| 1777748416 | 17.78° C | 53% | 1014.6 hPa | 0 mm | - | 0 W/m² | - |
| 1777747516 | 18.33° C | 52% | 1014.7 hPa | 0 mm | - | 0 W/m² | - |
| 1777746616 | 19.44° C | 50% | 1014.6 hPa | 0 mm | - | 9 W/m² | - |
| 1777745716 | 20° C | 48% | 1014.6 hPa | 0 mm | - | 26 W/m² | - |
| 1777744816 | 21.11° C | 44% | 1014.6 hPa | 0 mm | - | 37 W/m² | - |
| 1777743916 | 22.78° C | 40% | 1014.6 hPa | 0 mm | - | 69 W/m² | - |
| 1777743016 | 22.78° C | 41% | 1014.7 hPa | 0 mm | - | 95 W/m² | - |
| 1777742116 | 23.89° C | 38% | 1014.8 hPa | 0 mm | - | 98 W/m² | - |
| 1777741216 | 23.89° C | 35% | 1014.9 hPa | 0 mm | - | 130 W/m² | - |
| 1777740316 | 24.44° C | 33% | 1015.1 hPa | 0 mm | - | 195 W/m² | - |
| 1777739416 | 24.44° C | 32% | 1015.2 hPa | 0 mm | - | 179 W/m² | - |
| 1777738516 | 25° C | 32% | 1015.3 hPa | 0 mm | - | 214 W/m² | - |
| 1777737616 | 25° C | 32% | 1015.5 hPa | 0 mm | - | 253 W/m² | - |
| 1777736716 | 25° C | 31% | 1015.6 hPa | 0 mm | - | 287 W/m² | - |
| 1777735816 | 25.56° C | 31% | 1015.7 hPa | 0 mm | - | 355 W/m² | - |
| 1777734916 | 25.56° C | 29% | 1015.8 hPa | 0 mm | - | 418 W/m² | - |
| 1777734016 | 25.56° C | 32% | 1015.9 hPa | 0 mm | - | 480 W/m² | - |
| 1777733116 | 26.11° C | 31% | 1016.2 hPa | 0 mm | - | 515 W/m² | - |
| 1777732216 | 25.56° C | 29% | 1016.2 hPa | 0 mm | - | 566 W/m² | - |
* Rain latest hour (hover to see other rain measurements)
** Current wind speed in m/s (hover to see current wind gust speed)